Woodstock, Georgia
Current Conditions -  °F | °C
As of 2:50 PM on Sunday 21 Dec 2014 (Local Time) from KRYY Reporting Station
Haze Haze  
Wind Chill: 45°   Ceiling: 1000
Heat Index: 48°   Visibility: 3mi
Dew Point: 43°   Wind: 8mph
Humidity: 82%   Direction: 120°ESE
Pressure: 30.13"   Gusts: NA
Location:  34.1°N, 84.51°W
Report Text: KRYY 211950Z 12007KT 3SM BR OVC010 09/06 A3013
Loading
Personal Weather Stations






























Interactive Weather Map New forecast layout! Learn more

10-Day Weather Forecast

Advertisements
Track Severe Weather on mobile